Pagrindinis puslapis
METAR-TAF:

METAR-TAF

Oro uostai :

Bizerte, Tunisas

platuma: 37-15N, ilguma: 009-48E, Aukštis: 5 m

Dabartinis oras

Ataskaita buvo paskelbta 1 valandą ir 9 minutes, ne 23:00 UTC
Vėjas 4 kt iš Šiaurės/Šiaurės Vakarų
Temperatūra 23°C
Drėgmė 89%
Slėgis 1017 hPa
Matomumas 10 km arba daugiau
nėra debesų žemiau 1500 m ir nėra kamuolinių lietaus debesų

METAR: DTTB 182300Z 33004KT CAVOK 23/21 Q1017

Laikas: 01:09 (00:09 UTC)

Prognozė

Ataskaita buvo paskelbta 6 valandos ir 9 minutes, ne 18:00 UTC
Prognozė galioja nuo 18 metu 19 UTC su 19 metu 04 UTC
Vėjas 10 kt iš Šiaurės Rytų
Matomumas 10 km arba daugiau
nėra debesų žemiau 1500 m ir nėra kamuolinių lietaus debesų
Tapsmas
nuo 18 metu 19 UTC su 18 metu 21 UTC
Vėjas 2 kt nuo kintamojo kryptimis

TAF: DTTB 181800Z 1819/1904 05010KT CAVOK BECMG 1819/1821 VRB02KT

Orai ataskaitas ir orų prognozės (METAR, TAF).

turimą stotys yra geltonos ir raudonos taškus žemėlapyje.

Perkelti pele per norėdami pamatyti stoties vardą.

Tada spustelėkite, norėdami matyti oro stebėjimo ir prognozės.

Norėdami pakeisti žemėlapį: spustelėkite ant žalios mygtukų su juodo kryžiaus žemyn,; žalią mygtuką su brūkšneliu, jei norite nutolinti; arba žalių rodyklių gretimoms žemėlapius.


METAR-TAF: